Sapporo, Japan

9:07 PM JST on July 24, 2016 (GMT +0900)
New Chitose | | Change Station

Elev 98 ft 42.77 °N, 141.69 °E | Updated 7 minutes ago

Light Drizzle
Light Drizzle
63 °F
Feels Like 63 °F
N
13
Wind Variable Wind from South

Today
High -- | Low -- °F
--% Chance of Precip.
Yesterday
High -- | Low -- °F
Precip. -- in
Pressure 30.06 in
Visibility 6.2 miles
Clouds Few 600 ft
Scattered Clouds 700 ft
Mostly Cloudy 800 ft
Dew Point 61 °F
Humidity 94%
Rainfall 0.00 in
Snow Depth Not available.
4:17 AM 7:04 PM
Waning Gibbous, 77% visible
METAR RJCC 241200Z 17011KT 9999 -DZ FEW006 SCT007 BKN008 17/16 Q1018 RMK 1ST006 4ST007 7ST008 A3007
Pressure 30.06 in
Visibility 6.2 miles
Clouds Few 600 ft
Scattered Clouds 700 ft
Mostly Cloudy 800 ft
Dew Point 61 °F
Humidity 94%
Rainfall 0.00 in
Snow Depth Not available.
4:17 AM 7:04 PM
Waning Gibbous, 77% visible
METAR RJCC 241200Z 17011KT 9999 -DZ FEW006 SCT007 BKN008 17/16 Q1018 RMK 1ST006 4ST007 7ST008 A3007

10-Day Weather Forecast

No radar image for this location.
×

Almanac

Astronomy

Jul. 24, 2016 Rise Set
Actual Time
Civil Twilight
Nautical Twilight
Astronomical Twilight
Moon
Length of Visible Light
Length of Day
Tomorrow will be .
, % of the Moon is Illuminated

Today's Extremes

Country Highs Country Lows

Community

WunderPhotos

Upload Photos

1,927,050 photos uploaded!

WunderBlog® & News

Nearby

Air Quality

  Air Quality AQ Index Pollutant
Not available.

Snow Depth

Station Depth Elevation

Earthquake Activity

City Distance Mag. Time & Date
Minimum magnitude displayed is 2.5.

Coastal Water Temperatures

Place Temperature

Stations

Nearby Weather Stations

Station Location Temp. Windchill Dew Point Humidity Wind Precip. Elev Updated Type